This is the latest recevied weather packets stored in our database for station/object K6LCM-13. If no packets are shown the sender has not sent any weather packets the latest 10 day(s).
| Time | Temp. | Humidity | Pressure | Rain* | Wind** | Luminosity | Snow |
|---|---|---|---|---|---|---|---|
| 1777847082 | 18.89° C | 67% | 1013.5 hPa | 0 mm | - | - | - |
| 1777846542 | 18.89° C | 63% | 1013.6 hPa | 0 mm | - | - | - |
| 1777845462 | 18.89° C | 63% | 1013.8 hPa | 0 mm | - | - | - |
| 1777844753 | 18.89° C | 66% | 1013.7 hPa | 0 mm | - | - | - |
| 1777843926 | 18.89° C | 66% | 1013.8 hPa | 0 mm | - | - | - |
| 1777842520 | 18.33° C | 68% | 1013.9 hPa | 0 mm | - | - | - |
| 1777841980 | 18.33° C | 70% | 1014.1 hPa | 0 mm | - | - | - |
| 1777841440 | 18.33° C | 71% | 1014.2 hPa | 0 mm | - | - | - |
| 1777840900 | 18.33° C | 70% | 1014.3 hPa | 0 mm | - | - | - |
| 1777840360 | 18.33° C | 67% | 1014.2 hPa | 0 mm | - | - | - |
| 1777839820 | 18.89° C | 71% | 1014.2 hPa | 0 mm | - | - | - |
| 1777839280 | 18.33° C | 71% | 1014.2 hPa | 0 mm | - | - | - |
| 1777837936 | 17.22° C | 80% | 1014.3 hPa | 0 mm | - | - | - |
| 1777836856 | 16.67° C | 82% | 1014.6 hPa | 0 mm | - | - | - |
| 1777836316 | 16.67° C | 80% | 1014.6 hPa | 0 mm | - | - | - |
| 1777835776 | 16.67° C | 78% | 1014.6 hPa | 0 mm | - | - | - |
| 1777835236 | 17.22° C | 76% | 1014.5 hPa | 0 mm | - | - | - |
| 1777834696 | 17.22° C | 75% | 1014.5 hPa | 0 mm | - | - | - |
| 1777834156 | 16.67° C | 77% | 1014.5 hPa | 0 mm | - | - | - |
| 1777833616 | 16.67° C | 79% | 1014.6 hPa | 0 mm | - | - | - |
| 1777833076 | 17.22° C | 77% | 1014.5 hPa | 0 mm | - | - | - |
| 1777832536 | 17.22° C | 77% | 1014.5 hPa | 0 mm | - | - | - |
| 1777831995 | 17.22° C | 77% | 1014.5 hPa | 0 mm | - | - | - |
| 1777830277 | 16.11° C | 80% | 1014.5 hPa | 0 mm | - | - | - |
| 1777828793 | 15.56° C | 81% | 1014.5 hPa | 0 mm | - | - | - |
* Rain latest hour (hover to see other rain measurements)
** Current wind speed in m/s (hover to see current wind gust speed)